logmein.com alexa rank chart, logmein.com alexa rank daily changes

logmein.com alexa rank chart, logmein.com alexa rank daily changes

logmein.com
Actual rank:
4 910

RANK HISTORY

Date Rank Diff
2018/04/22 4 910 -90
2018/04/21 5 000 +344
2018/04/20 4 656 -885
2018/04/19 5 541 +361
2018/04/18 5 180 -1 677
2018/04/17 6 857 +173
2018/04/16 6 684 +2 421
2018/04/15 4 263 +99
2018/04/14 4 164 +422
2018/04/13 3 742 -313
2018/04/12 4 055 -77
2018/04/11 4 132 -2 812
2018/04/10 6 944 +1 542
2018/04/09 5 402 +1 423
2018/04/08 3 979 -31
2018/04/07 4 010 -13
2018/04/06 4 023 +169
2018/04/05 3 854 -333
2018/04/04 4 187 -1 717
2018/04/03 5 904 +426
2018/04/02 5 478 +1 441
2018/04/01 4 037 +155
2018/03/31 3 882 -92
2018/03/30 3 974 +168
2018/03/29 3 806 +97
2018/03/28 3 709 -3 812
2018/03/27 7 521 +1 148
2018/03/26 6 373 +2 326
2018/03/25 4 047 -61
2018/03/24 4 108 +219
2018/03/23 3 889 -887
2018/03/22 4 776 +443
2018/03/21 4 333 -2 387
2018/03/20 6 720 +694
2018/03/19 6 026 +2 179
2018/03/18 3 847 -358
2018/03/17 4 205 +380
2018/03/16 3 825 +95
2018/03/15 3 730 -260
2018/03/14 3 990 -2 962
2018/03/13 6 952 +723
2018/03/12 6 229 +2 317
2018/03/11 3 912 +510
2018/03/10 3 402 -277
2018/03/09 3 679 -924
2018/03/08 4 603 +267
2018/03/07 4 336 -1 985
2018/03/06 6 321 -87
2018/03/05 6 408 +2 894
2018/03/04 3 514 +189
2018/03/03 3 325 -328
2018/03/02 3 653 -227
2018/03/01 3 880 -333
2018/02/28 4 213 -2 919
2018/02/27 7 132 +509
2018/02/26 6 623 +2 808
2018/02/25 3 815 +318
2018/02/24 3 497 -206
2018/02/23 3 703 +9
2018/02/22 3 694 -431
2018/02/21 4 125

WIDGET FOR YOUR SITE

DOMAINS WITH THE NEAREST RANK

Domain Rank
mponline.gov.in 4 905
governmentjobs.com 4 906
magicbricks.com 4 907
monex.co.jp 4 908
intellicast.com 4 909
logmein.com 4 910
screwfix.com 4 911
anses.gob.ar 4 912
streeteasy.com 4 913
24sata.hr 4 914
linustechtips.com 4 915

DOMAINS WITH THE NEAREST RANK BY TLD .com

Domain Rank
onclickmega.com 4 900
myspace.com 4 902
governmentjobs.com 4 906
magicbricks.com 4 907
intellicast.com 4 909
logmein.com 4 910
screwfix.com 4 911
streeteasy.com 4 913
linustechtips.com 4 915
letras.com 4 917
seatgeek.com 4 918